»·PEaware :: ORDER66 KLSV-KPDX

ORDER66 :: KLSV-KPDX

FLIGHT INFORMATION

Flight Status: Arrived
Operator: Unknown
More flights by this operator :: More flights under this callsign
Pilot: Anonymous 3903 (3903)
Aircraft: Unknown
(E4)
More flights by this aircraft type
Origin: KLSV Nellis AFB
United States
Destination: KPDX Portland Intl
United States
More flights between these airports :: More routes between these airports
Route: +MMM6 MMM CYS DBS JOTBA HHOOD4
File this flight plan on PilotEdge
Remarks:
Altitude:
(Current/Filed)
29,000ft
Speed:
(Current/Filed)
520kts
Departed: 31-Jan-19 05:25 PM
Arrived: 31-Jan-19 09:45 PM
Distance/Time
Traveled:
657nm/4:20
Distance/Time
To Go:
Arrived

Flight Plot

Page will automatically refresh every two minutes.

Flight plan parsing failed; only flown route is shown


Map Options




Map Legend


Flown Route
Filed Route
Departure Airport
Arrival Airport
Navaid (VOR, NDB)
Fix

Horizontal Profiles

Position Reports

Time Latitude Longitude Heading Altitude Ground
Speed
31-Jan-19 16:57 36.239108 -115.022675 219 1882ft 0kts
31-Jan-19 16:58 36.239108 -115.022675 219 1882ft 0kts
31-Jan-19 16:59 36.239108 -115.022675 219 1882ft 0kts
31-Jan-19 17:00 36.239108 -115.022675 219 1882ft 0kts
31-Jan-19 17:01 36.239108 -115.022675 219 1882ft 0kts
31-Jan-19 17:02 36.239108 -115.022675 219 1882ft 0kts
31-Jan-19 17:03 36.239108 -115.022675 219 1882ft 0kts
31-Jan-19 17:04 36.239108 -115.022675 219 1882ft 0kts
31-Jan-19 17:05 36.239108 -115.022675 219 1882ft 0kts
31-Jan-19 17:06 36.239108 -115.022675 219 1882ft 0kts
31-Jan-19 17:07 36.239108 -115.022675 219 1882ft 0kts
31-Jan-19 17:08 36.239108 -115.022675 219 1882ft 0kts
31-Jan-19 17:09 36.239108 -115.022675 219 1882ft 0kts
31-Jan-19 17:10 36.239108 -115.022676 219 1882ft 0kts
31-Jan-19 17:11 36.239108 -115.022676 219 1882ft 0kts
31-Jan-19 17:12 36.239107 -115.022676 219 1882ft 0kts
31-Jan-19 17:13 36.239107 -115.022677 219 1882ft 0kts
31-Jan-19 17:14 36.239106 -115.022677 219 1882ft 0kts
31-Jan-19 17:15 36.239004 -115.024089 310 1882ft 9kts
31-Jan-19 17:16 36.238084 -115.026331 220 1882ft 7kts
31-Jan-19 17:17 36.236491 -115.028081 220 1882ft 11kts
31-Jan-19 17:18 36.231969 -115.031121 182 1882ft 15kts
31-Jan-19 17:19 36.230031 -115.032344 222 1882ft 9kts
31-Jan-19 17:20 36.226128 -115.036602 221 1882ft 21kts
31-Jan-19 17:21 36.222719 -115.040486 254 1882ft 9kts
31-Jan-19 17:22 36.224085 -115.042766 311 1882ft 7kts
31-Jan-19 17:23 36.225468 -115.043702 39 1882ft 5kts
31-Jan-19 17:24 36.227572 -115.041429 41 1882ft 67kts
31-Jan-19 17:25 36.261541 -115.005395 38 2720ft 198kts
31-Jan-19 17:26 36.303906 -114.956456 46 3842ft 224kts
31-Jan-19 17:27 36.351801 -114.897641 44 4142ft 261kts
31-Jan-19 17:28 36.407723 -114.827780 50 5033ft 304kts
31-Jan-19 17:29 36.462112 -114.744223 51 7090ft 317kts
31-Jan-19 17:30 36.519011 -114.657612 51 9136ft 329kts
31-Jan-19 17:31 36.578723 -114.567519 50 10908ft 348kts
31-Jan-19 17:32 36.640758 -114.473838 51 12876ft 358kts
31-Jan-19 17:33 36.705516 -114.374964 51 14567ft 374kts
31-Jan-19 17:34 36.771830 -114.272922 54 16367ft 383kts
31-Jan-19 17:35 36.832060 -114.161640 57 18023ft 393kts
31-Jan-19 17:36 36.892414 -114.047754 57 19625ft 398kts
31-Jan-19 17:37 36.954633 -113.930517 57 20731ft 416kts
31-Jan-19 17:38 37.021954 -113.805225 57 21186ft 455kts
31-Jan-19 17:39 37.094891 -113.668111 57 21985ft 484kts
31-Jan-19 17:40 37.169990 -113.526058 57 23452ft 493kts
31-Jan-19 17:41 37.246418 -113.380826 57 24788ft 502kts
31-Jan-19 17:42 37.323636 -113.233435 57 26092ft 506kts
31-Jan-19 17:43 37.400238 -113.086578 57 27684ft 500kts
31-Jan-19 17:44 37.476194 -112.940318 57 28099ft 499kts
31-Jan-19 17:45 37.552064 -112.793568 58 28103ft 499kts
31-Jan-19 17:46 37.627779 -112.646470 58 28113ft 500kts
31-Jan-19 17:47 37.703311 -112.499072 58 28129ft 500kts
31-Jan-19 17:49 37.778669 -112.351339 58 28138ft 500kts
31-Jan-19 17:50 37.853870 -112.203283 58 28146ft 500kts
31-Jan-19 17:51 37.928821 -112.055039 58 28146ft 500kts
31-Jan-19 17:52 38.003525 -111.906610 58 28145ft 500kts
31-Jan-19 17:53 38.078150 -111.757661 58 28146ft 500kts
31-Jan-19 17:54 38.152721 -111.608139 58 28151ft 501kts
31-Jan-19 17:55 38.227165 -111.458190 58 28160ft 502kts
31-Jan-19 17:56 38.301500 -111.307749 58 28185ft 502kts
31-Jan-19 17:57 38.375677 -111.156955 58 28192ft 504kts
31-Jan-19 17:58 38.450002 -111.005143 57 28194ft 504kts
31-Jan-19 17:59 38.524130 -110.853019 57 28197ft 505kts
31-Jan-19 18:00 38.598124 -110.700449 57 28195ft 506kts
31-Jan-19 18:01 38.671868 -110.547673 57 28191ft 505kts
31-Jan-19 18:02 38.745589 -110.394216 57 28181ft 506kts
31-Jan-19 18:03 38.819013 -110.240640 57 28166ft 506kts
31-Jan-19 18:04 38.892652 -110.085857 57 28158ft 506kts
31-Jan-19 18:05 38.966500 -109.929904 58 28154ft 520kts
31-Jan-19 18:06 39.042456 -109.768685 58 28154ft 533kts
31-Jan-19 18:07 39.119807 -109.603652 58 28153ft 542kts
31-Jan-19 18:08 39.197822 -109.436342 58 28159ft 544kts
31-Jan-19 18:09 39.275554 -109.268749 58 28162ft 545kts
31-Jan-19 18:09 39.340174 -109.128746 58 28164ft 545kts
31-Jan-19 18:10 39.417814 -108.959705 58 28165ft 547kts
31-Jan-19 18:12 39.508250 -108.761651 58 28166ft 548kts
31-Jan-19 18:13 39.585522 -108.591420 58 28160ft 549kts
31-Jan-19 18:13 39.650021 -108.448628 59 28159ft 550kts
31-Jan-19 18:14 39.727212 -108.276826 59 28153ft 551kts
31-Jan-19 18:15 39.804385 -108.104181 59 28148ft 552kts
31-Jan-19 18:16 39.881169 -107.931426 59 28139ft 553kts
31-Jan-19 18:17 39.957991 -107.757608 59 28149ft 552kts
31-Jan-19 18:18 40.034319 -107.583930 59 28163ft 552kts
31-Jan-19 18:19 40.110310 -107.410043 59 28173ft 552kts
31-Jan-19 18:20 40.186293 -107.235183 59 28176ft 552kts
31-Jan-19 18:21 40.261752 -107.060537 58 28175ft 551kts
31-Jan-19 18:22 40.336877 -106.885643 58 28175ft 551kts
31-Jan-19 18:23 40.411868 -106.710086 58 28680ft 551kts
31-Jan-19 18:24 40.486472 -106.534431 58 29333ft 550kts
31-Jan-19 18:25 40.560623 -106.358818 58 29858ft 549kts
31-Jan-19 18:26 40.634249 -106.183406 58 30150ft 548kts
31-Jan-19 18:27 40.707631 -106.007592 59 30147ft 547kts
31-Jan-19 18:28 40.780623 -105.831680 58 30115ft 546kts
31-Jan-19 18:29 40.853257 -105.655598 58 30088ft 546kts
31-Jan-19 18:30 40.925782 -105.478728 58 30068ft 545kts
31-Jan-19 18:31 40.997725 -105.302254 58 30057ft 545kts
31-Jan-19 18:32 41.069456 -105.125695 58 30044ft 544kts
31-Jan-19 18:33 41.167724 -104.984668 17 30041ft 520kts
31-Jan-19 18:34 41.300839 -105.011009 319 30044ft 495kts
31-Jan-19 18:35 41.380991 -105.157916 298 30040ft 495kts
31-Jan-19 18:36 41.448478 -105.318683 299 30041ft 496kts
31-Jan-19 18:37 41.516873 -105.478587 299 30044ft 497kts
31-Jan-19 18:38 41.585170 -105.638569 299 30043ft 497kts
31-Jan-19 18:39 41.653457 -105.799303 299 30050ft 498kts
31-Jan-19 18:40 41.721707 -105.960808 299 30050ft 498kts
31-Jan-19 18:41 41.789659 -106.122484 299 30044ft 498kts
31-Jan-19 18:42 41.857399 -106.284539 299 30038ft 498kts
31-Jan-19 18:43 41.924869 -106.446834 299 30038ft 499kts
31-Jan-19 18:44 41.992224 -106.609746 298 30050ft 499kts
31-Jan-19 18:45 42.059310 -106.772918 299 30059ft 498kts
31-Jan-19 18:46 42.126208 -106.936517 298 30066ft 499kts
31-Jan-19 18:47 42.192984 -107.100769 298 30069ft 499kts
31-Jan-19 18:48 42.259426 -107.265083 298 30078ft 500kts
31-Jan-19 18:49 42.325943 -107.430557 298 30070ft 501kts
31-Jan-19 18:50 42.392109 -107.596094 298 30063ft 501kts
31-Jan-19 18:51 42.458052 -107.761998 298 30057ft 501kts
31-Jan-19 18:52 42.523915 -107.928675 298 30050ft 502kts
31-Jan-19 18:53 42.589478 -108.095548 298 30040ft 503kts
31-Jan-19 18:54 42.655162 -108.263682 297 30034ft 504kts
31-Jan-19 18:55 42.720484 -108.431911 297 30017ft 504kts
31-Jan-19 18:56 42.785781 -108.601057 297 30012ft 505kts
31-Jan-19 18:57 42.850877 -108.770682 297 30010ft 505kts
31-Jan-19 18:58 42.915752 -108.940745 297 30016ft 506kts
31-Jan-19 18:59 42.980484 -109.111449 297 30035ft 507kts
31-Jan-19 19:00 43.045109 -109.282881 297 30058ft 507kts
31-Jan-19 19:01 43.109520 -109.454784 297 30086ft 507kts
31-Jan-19 19:02 43.173568 -109.626828 297 30099ft 508kts
31-Jan-19 19:03 43.237694 -109.800112 297 30104ft 508kts
31-Jan-19 19:04 43.301276 -109.973013 297 30122ft 508kts
31-Jan-19 19:05 43.364916 -110.147129 297 30129ft 510kts
31-Jan-19 19:06 43.428350 -110.321771 297 30136ft 510kts
31-Jan-19 19:07 43.491495 -110.496709 297 30146ft 511kts
31-Jan-19 19:08 43.554516 -110.672304 297 30148ft 511kts
31-Jan-19 19:09 43.617220 -110.848350 296 30150ft 512kts
31-Jan-19 19:10 43.679676 -111.024743 296 30150ft 512kts
31-Jan-19 19:11 43.742123 -111.202235 296 30149ft 513kts
31-Jan-19 19:12 43.804368 -111.380304 296 30146ft 514kts
31-Jan-19 19:13 43.866159 -111.558218 296 30139ft 514kts
31-Jan-19 19:14 43.927954 -111.737346 296 30138ft 515kts
31-Jan-19 19:15 43.989861 -111.916633 295 30138ft 515kts
31-Jan-19 19:16 44.050887 -112.096851 295 30132ft 515kts
31-Jan-19 19:17 44.091063 -112.286299 275 30121ft 517kts
31-Jan-19 19:18 44.095556 -112.485952 272 30113ft 517kts
31-Jan-19 19:19 44.099411 -112.685365 272 30105ft 515kts
31-Jan-19 19:20 44.104366 -112.884858 272 30100ft 515kts
31-Jan-19 19:21 44.108202 -113.082118 272 30090ft 492kts
31-Jan-19 19:22 44.111947 -113.267941 272 30175ft 479kts
31-Jan-19 19:23 44.114638 -113.454672 272 30930ft 486kts
31-Jan-19 19:24 44.120517 -113.644122 284 31530ft 488kts
31-Jan-19 19:25 44.202917 -113.784932 335 31853ft 487kts
31-Jan-19 19:26 44.334742 -113.780905 25 32070ft 494kts
31-Jan-19 19:27 44.417486 -113.631200 75 32074ft 511kts
31-Jan-19 19:28 44.405726 -113.431632 100 32071ft 521kts
31-Jan-19 19:29 44.374163 -113.233820 101 32074ft 522kts
31-Jan-19 19:30 44.342374 -113.035322 101 32075ft 523kts
31-Jan-19 19:31 44.310637 -112.837321 101 32077ft 522kts
31-Jan-19 19:32 44.230000 -112.677478 153 32088ft 527kts
31-Jan-19 19:33 44.089894 -112.682430 212 32103ft 517kts
31-Jan-19 19:34 44.018530 -112.843518 264 32109ft 499kts
31-Jan-19 19:35 44.029386 -113.032946 282 32101ft 492kts
31-Jan-19 19:36 44.056905 -113.219923 283 32095ft 492kts
31-Jan-19 19:37 44.085622 -113.405915 283 32088ft 494kts
31-Jan-19 19:38 44.115288 -113.592983 284 32086ft 495kts
31-Jan-19 19:39 44.193124 -113.741985 332 32082ft 490kts
31-Jan-19 19:40 44.325023 -113.749827 22 32075ft 494kts
31-Jan-19 19:41 44.414029 -113.607822 71 32074ft 509kts
31-Jan-19 19:42 44.407083 -113.409823 100 32073ft 521kts
31-Jan-19 19:43 44.375618 -113.211876 101 32073ft 522kts
31-Jan-19 19:44 44.343921 -113.013944 101 32074ft 522kts
31-Jan-19 19:45 44.312080 -112.815333 101 32077ft 522kts
31-Jan-19 19:46 44.220824 -112.667398 159 32088ft 527kts
31-Jan-19 19:47 44.082295 -112.691924 218 32104ft 516kts
31-Jan-19 19:48 44.021236 -112.861236 266 32108ft 498kts
31-Jan-19 19:49 44.032673 -113.050728 281 32100ft 493kts
31-Jan-19 19:50 44.059675 -113.237238 283 32095ft 492kts
31-Jan-19 19:51 44.088431 -113.423767 283 32087ft 494kts
31-Jan-19 19:52 44.118330 -113.610749 287 32081ft 495kts
31-Jan-19 19:53 44.204795 -113.749829 336 32081ft 489kts
31-Jan-19 19:54 44.336876 -113.741789 26 32075ft 495kts
31-Jan-19 19:55 44.417246 -113.589580 76 32073ft 511kts
31-Jan-19 19:56 44.404184 -113.390825 100 32074ft 521kts
31-Jan-19 19:57 44.372512 -113.192584 101 32072ft 522kts
31-Jan-19 19:58 44.340768 -112.994367 101 32075ft 522kts
31-Jan-19 19:59 44.308495 -112.796812 106 32064ft 523kts
31-Jan-19 20:01 44.207283 -112.661475 165 32090ft 526kts
31-Jan-19 20:02 44.071564 -112.704255 223 32105ft 514kts
31-Jan-19 20:03 44.025736 -112.877990 280 32111ft 471kts
31-Jan-19 20:04 44.057343 -113.057715 285 32095ft 488kts
31-Jan-19 20:05 44.091482 -113.243413 285 32091ft 502kts
31-Jan-19 20:06 44.125968 -113.433061 285 32086ft 508kts
31-Jan-19 20:07 44.160416 -113.624423 285 32081ft 509kts
31-Jan-19 20:08 44.194500 -113.815880 285 32079ft 510kts
31-Jan-19 20:09 44.228362 -114.008075 285 32076ft 511kts
31-Jan-19 20:10 44.261970 -114.200743 285 32070ft 510kts
31-Jan-19 20:11 44.295076 -114.392840 284 32075ft 509kts
31-Jan-19 20:12 44.327820 -114.584819 284 32077ft 508kts
31-Jan-19 20:13 44.360185 -114.776657 284 32078ft 507kts
31-Jan-19 20:14 44.392148 -114.968221 284 32076ft 505kts
31-Jan-19 20:15 44.423803 -115.160068 284 32074ft 505kts
31-Jan-19 20:16 44.455064 -115.351677 283 32068ft 505kts
31-Jan-19 20:17 44.486110 -115.544096 283 32058ft 507kts
31-Jan-19 20:18 44.516735 -115.736200 283 32049ft 507kts
31-Jan-19 20:19 44.547161 -115.929246 283 32036ft 508kts
31-Jan-19 20:20 44.577238 -116.122345 283 32029ft 507kts
31-Jan-19 20:21 44.607040 -116.315972 283 32035ft 506kts
31-Jan-19 20:21 44.631560 -116.476885 282 32039ft 504kts
31-Jan-19 20:22 44.660468 -116.669046 282 32047ft 503kts
31-Jan-19 20:24 44.693753 -116.893101 282 32052ft 502kts
31-Jan-19 20:25 44.721887 -117.085002 282 31260ft 493kts
31-Jan-19 20:25 44.744318 -117.239693 281 29024ft 477kts
31-Jan-19 20:26 44.770201 -117.420209 281 26406ft 462kts
31-Jan-19 20:27 44.794936 -117.594731 280 24352ft 443kts
31-Jan-19 20:28 44.819032 -117.766813 280 24025ft 448kts
31-Jan-19 20:29 44.850201 -117.936034 286 24018ft 448kts
31-Jan-19 20:30 44.886481 -118.104345 285 24003ft 448kts
31-Jan-19 20:31 44.922490 -118.273080 285 23986ft 448kts
31-Jan-19 20:32 44.959141 -118.446289 285 23978ft 474kts
31-Jan-19 20:33 44.997251 -118.627970 285 23948ft 486kts
31-Jan-19 20:34 45.035407 -118.811477 284 23940ft 485kts
31-Jan-19 20:35 45.073064 -118.994267 284 23955ft 485kts
31-Jan-19 20:36 45.110489 -119.177571 284 23942ft 485kts
31-Jan-19 20:37 45.147713 -119.361575 284 23948ft 485kts
31-Jan-19 20:38 45.184545 -119.545332 284 23953ft 484kts
31-Jan-19 20:39 45.221024 -119.729031 283 23954ft 484kts
31-Jan-19 20:40 45.257129 -119.912560 283 23954ft 483kts
31-Jan-19 20:41 45.292993 -120.096575 283 23956ft 483kts
31-Jan-19 20:42 45.328541 -120.280744 283 23958ft 483kts
31-Jan-19 20:43 45.363760 -120.464956 282 23963ft 483kts
31-Jan-19 20:44 45.398635 -120.649136 282 23967ft 483kts
31-Jan-19 20:45 45.433295 -120.833947 282 23977ft 484kts
31-Jan-19 20:46 45.467726 -121.019395 282 23984ft 483kts
31-Jan-19 20:47 45.501797 -121.204716 281 23985ft 483kts
31-Jan-19 20:48 45.535519 -121.389969 281 23977ft 483kts
31-Jan-19 20:49 45.568956 -121.575485 281 23949ft 482kts
31-Jan-19 20:50 45.602059 -121.761035 281 23908ft 482kts
31-Jan-19 20:51 45.634938 -121.947162 281 23878ft 482kts
31-Jan-19 20:52 45.667437 -122.132961 280 23848ft 482kts
31-Jan-19 20:53 45.700772 -122.318267 280 23837ft 482kts
31-Jan-19 20:54 45.732977 -122.504774 282 23834ft 482kts
31-Jan-19 20:55 45.775442 -122.687456 285 23838ft 485kts
31-Jan-19 20:56 45.819411 -122.870249 285 23839ft 485kts
31-Jan-19 20:57 45.863954 -123.052614 285 23833ft 485kts
31-Jan-19 20:58 45.909333 -123.235653 285 23825ft 486kts
31-Jan-19 20:59 45.955096 -123.417373 285 23816ft 485kts
31-Jan-19 21:00 46.001849 -123.600366 285 23805ft 485kts
31-Jan-19 21:01 46.048864 -123.781695 285 23794ft 485kts
31-Jan-19 21:02 46.096362 -123.964142 285 23790ft 485kts
31-Jan-19 21:03 46.126866 -124.151656 275 23789ft 478kts
31-Jan-19 21:04 46.150315 -124.339885 275 23790ft 477kts
31-Jan-19 21:05 46.160046 -124.528615 255 23784ft 467kts
31-Jan-19 21:06 46.099554 -124.678784 218 23788ft 403kts
31-Jan-19 21:07 46.004094 -124.737821 192 23795ft 367kts
31-Jan-19 21:08 45.900965 -124.755343 190 23793ft 376kts
31-Jan-19 21:09 45.796954 -124.772566 190 23794ft 376kts
31-Jan-19 21:10 45.692919 -124.789706 190 23794ft 376kts
31-Jan-19 21:11 45.588891 -124.806726 190 23795ft 376kts
31-Jan-19 21:12 45.484962 -124.823881 190 23796ft 376kts
31-Jan-19 21:13 45.380763 -124.836949 184 23810ft 379kts
31-Jan-19 21:14 45.275219 -124.824068 163 23803ft 388kts
31-Jan-19 21:15 45.219457 -124.690550 91 23818ft 449kts
31-Jan-19 21:16 45.288675 -124.547787 23 23802ft 456kts
31-Jan-19 21:17 45.409145 -124.507101 7 23812ft 439kts
31-Jan-19 21:18 45.530141 -124.492889 358 23794ft 436kts
31-Jan-19 21:19 45.650770 -124.492117 336 23762ft 427kts
31-Jan-19 21:20 45.713876 -124.607414 262 23795ft 369kts
31-Jan-19 21:21 45.651166 -124.701614 191 23808ft 358kts
31-Jan-19 21:22 45.550361 -124.706682 185 23792ft 365kts
31-Jan-19 21:23 45.451597 -124.725193 211 23809ft 357kts
31-Jan-19 21:24 45.361909 -124.777043 175 23758ft 376kts
31-Jan-19 21:25 45.284550 -124.662442 107 22780ft 461kts
31-Jan-19 21:26 45.308113 -124.485142 74 20825ft 456kts
31-Jan-19 21:27 45.347588 -124.321748 74 18819ft 419kts
31-Jan-19 21:28 45.383930 -124.170085 74 16814ft 393kts
31-Jan-19 21:29 45.418272 -124.025753 74 16033ft 384kts
31-Jan-19 21:30 45.452416 -123.881290 74 15978ft 386kts
31-Jan-19 21:31 45.486397 -123.736568 74 15980ft 385kts
31-Jan-19 21:32 45.520290 -123.591269 74 15980ft 385kts
31-Jan-19 21:33 45.552556 -123.448702 75 15405ft 363kts
31-Jan-19 21:34 45.582378 -123.316479 75 12892ft 334kts
31-Jan-19 21:35 45.610694 -123.192755 75 10395ft 323kts
31-Jan-19 21:36 45.641998 -123.076831 49 7877ft 306kts
31-Jan-19 21:37 45.700904 -122.999395 71 5474ft 273kts
31-Jan-19 21:38 45.700674 -122.899196 103 3433ft 238kts
31-Jan-19 21:39 45.674069 -122.823919 120 3170ft 196kts
31-Jan-19 21:40 45.648211 -122.757901 119 2149ft 173kts
31-Jan-19 21:41 45.626264 -122.701440 119 1262ft 154kts
31-Jan-19 21:42 45.605056 -122.646932 118 438ft 155kts
31-Jan-19 21:43 45.586202 -122.598507 119 31ft 90kts
31-Jan-19 21:44 45.582754 -122.593123 208 31ft 8kts
31-Jan-19 21:45 45.582109 -122.594397 297 31ft 3kts
31-Jan-19 21:46 45.582020 -122.595806 221 31ft 9kts
31-Jan-19 21:47 45.581753 -122.596032 207 31ft 0kts
31-Jan-19 21:48 45.581752 -122.596033 207 31ft 0kts
31-Jan-19 21:49 45.581752 -122.596033 207 31ft 0kts

Navigation Log

Ident Type
Flight plan parsing failed, navigation log unavailable